createdAt,value
2022-09-11T00:01:00.036Z,26.15
2022-09-11T00:06:03.837Z,26.14
2022-09-11T00:08:31.945Z,26.13
2022-09-11T00:11:13.651Z,26.14
2022-09-11T00:13:40.366Z,26.14
2022-09-11T00:16:17.915Z,26.13
2022-09-11T00:18:44.617Z,26.14
2022-09-11T00:21:11.149Z,26.14
2022-09-11T00:23:37.722Z,26.14
2022-09-11T00:26:04.956Z,26.15
2022-09-11T00:28:31.969Z,26.11
2022-09-11T00:30:59.615Z,26.15
2022-09-11T00:33:27.468Z,26.03
2022-09-11T00:35:57.015Z,26.16
2022-09-11T00:38:24.373Z,26.15
2022-09-11T00:40:51.842Z,26.16
2022-09-11T00:43:18.560Z,26.16
2022-09-11T00:45:50.079Z,26.16
2022-09-11T00:48:21.905Z,26.16
2022-09-11T00:50:50.304Z,26.17
2022-09-11T00:53:19.172Z,26.17
2022-09-11T00:55:51.488Z,26.17
2022-09-11T00:58:23.733Z,26.17
2022-09-11T01:00:52.227Z,26.17
2022-09-11T01:03:19.448Z,26.18
2022-09-11T01:05:48.222Z,26.11
2022-09-11T01:08:15.107Z,26.19
2022-09-11T01:10:47.619Z,26.18
2022-09-11T01:13:24.243Z,26.19
2022-09-11T01:16:10.822Z,26.18
2022-09-11T01:18:41.149Z,26.18
2022-09-11T01:21:17.005Z,26.18
2022-09-11T01:24:21.413Z,26.18
2022-09-11T01:27:02.835Z,26.16
2022-09-11T01:29:39.274Z,26.17
2022-09-11T01:32:31.155Z,26.18
2022-09-11T01:35:04.373Z,26.18
2022-09-11T01:37:40.593Z,26.19
2022-09-11T01:40:18.829Z,26.18
2022-09-11T01:42:49.685Z,26.18
2022-09-11T01:45:17.078Z,26.18
2022-09-11T01:47:46.416Z,26.18
2022-09-11T01:50:16.974Z,26.10
2022-09-11T01:52:50.573Z,26.20
2022-09-11T01:55:25.000Z,26.16
2022-09-11T01:57:56.440Z,26.19
2022-09-11T02:00:24.016Z,26.19
2022-09-11T02:02:59.477Z,26.19
2022-09-11T02:05:33.541Z,26.21
2022-09-11T02:08:11.859Z,26.19
2022-09-11T02:10:45.332Z,26.11
2022-09-11T02:13:14.502Z,26.20
2022-09-11T02:15:49.519Z,26.19
2022-09-11T02:18:28.835Z,26.17
2022-09-11T02:23:21.262Z,26.18
2022-09-11T02:25:48.540Z,26.18
2022-09-11T02:28:15.619Z,26.18
2022-09-11T02:30:43.910Z,26.13
2022-09-11T02:33:47.419Z,26.18
2022-09-11T02:36:32.268Z,26.18
2022-09-11T02:39:17.143Z,26.18
2022-09-11T02:42:18.825Z,26.17
2022-09-11T02:44:59.364Z,26.16
2022-09-11T02:48:07.428Z,26.15
2022-09-11T02:51:17.737Z,26.16
2022-09-11T02:54:03.251Z,26.15
2022-09-11T02:56:51.087Z,26.15
2022-09-11T02:59:24.403Z,26.15
2022-09-11T03:01:55.219Z,26.15
2022-09-11T03:06:38.444Z,26.16
2022-09-11T03:09:07.384Z,26.17
2022-09-11T03:13:53.536Z,26.16
2022-09-11T03:16:20.525Z,26.15
2022-09-11T03:18:47.378Z,26.15
2022-09-11T03:21:14.320Z,26.15
2022-09-11T03:23:40.968Z,26.15
2022-09-11T03:26:07.877Z,26.15
2022-09-11T03:28:34.556Z,26.15
2022-09-11T03:31:07.774Z,26.15
2022-09-11T03:33:35.106Z,26.15
2022-09-11T03:36:01.799Z,26.14
2022-09-11T03:38:28.352Z,26.14
2022-09-11T03:40:55.140Z,26.15
2022-09-11T03:43:21.952Z,26.15
2022-09-11T03:45:50.166Z,26.14
2022-09-11T03:48:16.795Z,26.14
2022-09-11T03:50:45.411Z,26.13
2022-09-11T03:53:12.904Z,26.13
2022-09-11T03:55:40.232Z,26.13
2022-09-11T03:58:07.525Z,26.13
2022-09-11T04:00:41.909Z,26.13
2022-09-11T04:03:08.785Z,26.12
2022-09-11T04:05:43.940Z,26.09
2022-09-11T04:08:13.941Z,26.12
2022-09-11T04:10:43.628Z,26.09
2022-09-11T04:13:10.936Z,26.11
2022-09-11T04:15:37.544Z,26.12
2022-09-11T04:18:08.284Z,26.10
2022-09-11T04:20:39.605Z,26.10
2022-09-11T04:25:19.009Z,26.10
2022-09-11T04:27:45.595Z,26.10
2022-09-11T04:30:15.460Z,26.09
2022-09-11T04:32:42.083Z,26.09
2022-09-11T04:35:08.963Z,26.09
2022-09-11T04:37:42.440Z,26.09
2022-09-11T04:40:09.943Z,26.09
2022-09-11T04:42:36.683Z,26.09
2022-09-11T04:45:04.606Z,26.04
2022-09-11T04:47:32.390Z,26.10
2022-09-11T04:49:58.946Z,26.10
2022-09-11T04:52:25.700Z,25.70
2022-09-11T04:54:52.361Z,26.10
2022-09-11T04:57:19.203Z,26.10
2022-09-11T04:59:46.087Z,26.10
2022-09-11T05:02:13.051Z,26.09
2022-09-11T05:04:42.906Z,26.09
2022-09-11T05:07:13.437Z,26.10
2022-09-11T05:09:42.440Z,26.10
2022-09-11T05:12:10.586Z,26.10
2022-09-11T05:14:37.888Z,26.11
2022-09-11T05:17:04.613Z,26.10
2022-09-11T05:19:35.441Z,26.12
2022-09-11T05:22:02.028Z,26.12
2022-09-11T05:24:29.907Z,26.12
2022-09-11T05:26:58.867Z,26.11
2022-09-11T05:29:32.191Z,26.12
2022-09-11T05:32:08.060Z,26.13
2022-09-11T05:34:34.923Z,26.13
2022-09-11T05:37:02.228Z,26.12
2022-09-11T05:39:32.031Z,26.12
2022-09-11T05:42:00.945Z,26.12
2022-09-11T05:44:31.680Z,26.12
2022-09-11T05:46:58.725Z,26.13
2022-09-11T05:49:25.700Z,26.13
2022-09-11T05:51:52.359Z,26.13
2022-09-11T05:54:19.044Z,26.13
2022-09-11T05:56:45.908Z,26.13
2022-09-11T05:59:20.526Z,26.15
2022-09-11T06:01:49.742Z,26.14
2022-09-11T06:04:24.957Z,26.16
2022-09-11T06:06:52.617Z,26.14
2022-09-11T06:11:31.460Z,26.16
2022-09-11T06:16:18.305Z,26.18
2022-09-11T06:18:50.475Z,26.18
2022-09-11T06:21:22.576Z,26.20
2022-09-11T06:24:18.596Z,26.22
2022-09-11T06:26:46.608Z,26.24
2022-09-11T06:29:16.902Z,26.25
2022-09-11T06:31:49.157Z,26.25
2022-09-11T06:34:18.213Z,26.26
2022-09-11T06:36:47.616Z,26.26
2022-09-11T06:39:20.514Z,26.25
2022-09-11T06:41:47.309Z,26.24
2022-09-11T06:44:15.949Z,26.11
2022-09-11T06:46:42.919Z,26.25
2022-09-11T06:49:11.757Z,26.27
2022-09-11T06:51:59.355Z,26.28
2022-09-11T06:54:26.171Z,26.30
2022-09-11T06:56:54.059Z,26.31
2022-09-11T06:59:23.790Z,26.31
2022-09-11T07:01:51.663Z,26.30
2022-09-11T07:04:18.887Z,26.30
2022-09-11T07:06:48.036Z,26.24
2022-09-11T07:09:15.855Z,26.30
2022-09-11T07:11:48.557Z,26.30
2022-09-11T07:14:21.298Z,26.31
2022-09-11T07:16:55.285Z,26.29
2022-09-11T07:19:25.603Z,26.29
2022-09-11T07:21:52.132Z,26.29
2022-09-11T07:24:20.633Z,26.31
2022-09-11T07:26:48.175Z,26.30
2022-09-11T07:29:20.748Z,26.31
2022-09-11T07:31:47.789Z,26.30
2022-09-11T07:34:15.641Z,26.31
2022-09-11T07:36:43.929Z,26.31
2022-09-11T07:39:10.639Z,26.30
2022-09-11T07:41:47.191Z,26.30
2022-09-11T07:46:33.329Z,26.11
2022-09-11T07:49:04.545Z,26.30
2022-09-11T07:51:31.395Z,26.30
2022-09-11T07:54:02.452Z,26.30
2022-09-11T07:56:31.796Z,26.30
2022-09-11T07:59:01.955Z,26.30
2022-09-11T08:01:31.145Z,26.30
2022-09-11T08:04:00.888Z,26.30
2022-09-11T08:06:30.303Z,26.29
2022-09-11T08:09:02.796Z,26.25
2022-09-11T08:11:36.209Z,26.29
2022-09-11T08:14:02.872Z,26.29
2022-09-11T08:16:29.956Z,26.30
2022-09-11T08:19:00.007Z,26.30
2022-09-11T08:21:26.845Z,26.28
2022-09-11T08:23:54.241Z,26.15
2022-09-11T08:26:23.541Z,26.30
2022-09-11T08:28:53.858Z,26.30
2022-09-11T08:31:23.039Z,26.30
2022-09-11T08:33:49.971Z,26.30
2022-09-11T08:36:16.763Z,26.30
2022-09-11T08:38:47.128Z,26.30
2022-09-11T08:41:16.471Z,26.30
2022-09-11T08:43:51.277Z,26.32
2022-09-11T08:46:23.105Z,26.32
2022-09-11T08:49:08.149Z,26.32
2022-09-11T08:51:36.301Z,26.34
2022-09-11T08:54:07.265Z,26.34
2022-09-11T08:56:38.708Z,26.35
2022-09-11T08:59:38.888Z,26.37
2022-09-11T09:02:27.919Z,26.37
2022-09-11T09:05:05.351Z,26.40
2022-09-11T09:08:01.567Z,26.42
2022-09-11T09:10:43.777Z,26.44
2022-09-11T09:13:25.618Z,26.46
2022-09-11T09:16:04.635Z,26.48
2022-09-11T09:18:36.395Z,26.49
2022-09-11T09:21:10.194Z,26.51
2022-09-11T09:24:01.327Z,26.53
2022-09-11T09:26:40.404Z,26.53
2022-09-11T09:29:17.809Z,26.55
2022-09-11T09:31:47.741Z,26.55
2022-09-11T09:34:18.594Z,26.45
2022-09-11T09:36:56.084Z,26.58
2022-09-11T09:39:24.331Z,26.59
2022-09-11T09:42:18.348Z,26.58
2022-09-11T09:45:02.359Z,26.60
2022-09-11T09:47:29.688Z,26.61
2022-09-11T09:49:58.342Z,26.61
2022-09-11T09:52:35.940Z,26.56
2022-09-11T09:55:05.767Z,26.62
2022-09-11T09:57:36.445Z,26.61
2022-09-11T10:00:06.932Z,26.62
2022-09-11T10:02:57.964Z,26.62
2022-09-11T10:05:24.638Z,26.62
2022-09-11T10:08:03.764Z,26.62
2022-09-11T10:10:34.726Z,26.62
2022-09-11T10:13:19.146Z,26.48
2022-09-11T10:15:49.657Z,26.63
2022-09-11T10:18:29.469Z,26.65
2022-09-11T10:21:11.564Z,26.63
2022-09-11T10:23:50.257Z,26.64
2022-09-11T10:26:34.282Z,26.65
2022-09-11T10:29:07.947Z,26.65
2022-09-11T10:31:39.242Z,26.65
2022-09-11T10:34:07.336Z,26.64
2022-09-11T10:36:35.112Z,26.64
2022-09-11T10:39:02.528Z,26.64
2022-09-11T10:41:34.279Z,26.62
2022-09-11T10:44:02.420Z,26.61
2022-09-11T10:46:38.513Z,26.61
2022-09-11T10:49:05.325Z,26.62
2022-09-11T10:51:47.318Z,26.63
2022-09-11T10:54:39.775Z,26.62
2022-09-11T10:57:34.860Z,26.60
2022-09-11T11:00:09.545Z,26.60
2022-09-11T11:02:41.620Z,26.59
2022-09-11T11:05:19.880Z,26.60
2022-09-11T11:07:50.205Z,26.61
2022-09-11T11:10:19.741Z,26.61
2022-09-11T11:13:29.957Z,26.62
2022-09-11T11:16:06.800Z,26.61
2022-09-11T11:19:04.396Z,26.60
2022-09-11T11:21:46.156Z,26.63
2022-09-11T11:24:32.354Z,26.65
2022-09-11T11:27:20.313Z,26.67
2022-09-11T11:30:13.057Z,26.70
2022-09-11T11:32:48.820Z,26.71
2022-09-11T11:35:30.223Z,26.72
2022-09-11T11:38:13.059Z,26.73
2022-09-11T11:40:49.620Z,26.74
2022-09-11T11:43:21.160Z,26.74
2022-09-11T11:46:12.388Z,26.75
2022-09-11T11:49:01.739Z,26.75
2022-09-11T11:51:35.426Z,26.72
2022-09-11T11:54:10.976Z,26.75
2022-09-11T11:56:48.014Z,26.75
2022-09-11T11:59:17.244Z,26.75
2022-09-11T12:02:02.261Z,26.74
2022-09-11T12:04:53.781Z,26.73
2022-09-11T12:07:33.169Z,26.74
2022-09-11T12:10:05.648Z,26.73
2022-09-11T12:12:36.681Z,26.70
2022-09-11T12:15:09.756Z,26.73
2022-09-11T12:17:39.803Z,26.73
2022-09-11T12:20:09.260Z,26.74
2022-09-11T12:22:48.638Z,26.70
2022-09-11T12:25:20.981Z,26.74
2022-09-11T12:27:48.778Z,26.74
2022-09-11T12:30:18.308Z,26.74
2022-09-11T12:32:57.021Z,26.75
2022-09-11T12:35:26.661Z,26.75
2022-09-11T12:38:13.421Z,26.75
2022-09-11T12:40:56.460Z,26.68
2022-09-11T12:43:35.508Z,26.76
2022-09-11T12:46:05.142Z,26.75
2022-09-11T12:48:38.795Z,26.76
2022-09-11T12:51:17.753Z,26.77
2022-09-11T12:53:50.435Z,26.76
2022-09-11T12:56:21.696Z,26.76
2022-09-11T12:59:07.568Z,26.77
2022-09-11T13:01:41.195Z,26.76
2022-09-11T13:04:10.591Z,26.76
2022-09-11T13:06:48.585Z,26.69
2022-09-11T13:09:28.657Z,26.76
2022-09-11T13:11:57.316Z,26.77
2022-09-11T13:14:32.136Z,26.76
2022-09-11T13:17:04.881Z,26.75
2022-09-11T13:19:36.296Z,26.73
2022-09-11T13:22:31.028Z,26.71
2022-09-11T13:25:18.716Z,26.69
2022-09-11T13:27:57.283Z,26.67
2022-09-11T13:30:26.664Z,26.65
2022-09-11T13:33:17.746Z,26.65
2022-09-11T13:35:45.809Z,26.65
2022-09-11T13:38:20.188Z,26.66
2022-09-11T13:40:55.741Z,26.66
2022-09-11T13:43:29.723Z,26.61
2022-09-11T13:46:14.884Z,26.65
2022-09-11T13:48:47.386Z,26.67
2022-09-11T13:51:16.504Z,26.63
2022-09-11T13:53:45.781Z,26.67
2022-09-11T13:56:51.405Z,26.66
2022-09-11T13:59:27.125Z,26.66
2022-09-11T14:01:56.908Z,26.67
2022-09-11T14:04:23.479Z,26.67
2022-09-11T14:06:50.213Z,26.68
2022-09-11T14:09:21.716Z,26.69
2022-09-11T14:11:49.517Z,26.69
2022-09-11T14:16:36.568Z,26.70
2022-09-11T14:19:16.924Z,26.72
2022-09-11T14:21:46.891Z,26.72
2022-09-11T14:24:33.716Z,26.71
2022-09-11T14:27:02.281Z,26.73
2022-09-11T14:29:33.234Z,26.73
2022-09-11T14:32:39.044Z,26.72
2022-09-11T14:35:09.149Z,26.71
2022-09-11T14:37:41.588Z,26.72
2022-09-11T14:40:16.051Z,26.70
2022-09-11T14:42:43.666Z,26.70
2022-09-11T14:45:24.608Z,26.69
2022-09-11T14:47:52.623Z,26.68
2022-09-11T14:50:19.512Z,26.67
2022-09-11T14:52:46.753Z,26.65
2022-09-11T14:55:14.617Z,26.65
2022-09-11T14:57:42.337Z,26.64
2022-09-11T15:00:10.815Z,26.62
2022-09-11T15:02:39.212Z,26.62
2022-09-11T15:05:07.705Z,26.61
2022-09-11T15:07:36.360Z,26.61
2022-09-11T15:10:02.917Z,26.59
2022-09-11T15:12:30.185Z,26.57
2022-09-11T15:14:59.342Z,26.57
2022-09-11T15:17:30.518Z,26.55
2022-09-11T15:19:59.919Z,26.54
2022-09-11T15:22:26.663Z,26.53
2022-09-11T15:24:54.006Z,26.51
2022-09-11T15:27:20.513Z,26.52
2022-09-11T15:29:47.057Z,26.50
2022-09-11T15:32:14.422Z,26.49
2022-09-11T15:34:42.377Z,26.34
2022-09-11T15:37:09.504Z,26.43
2022-09-11T15:39:36.189Z,26.47
2022-09-11T15:42:03.127Z,26.47
2022-09-11T15:44:29.959Z,26.47
2022-09-11T15:46:58.907Z,26.46
2022-09-11T15:49:28.374Z,26.46
2022-09-11T15:51:55.648Z,26.41
2022-09-11T15:54:25.509Z,26.44
2022-09-11T15:56:52.859Z,26.43
2022-09-11T15:59:19.455Z,26.43
2022-09-11T16:01:46.328Z,26.41
2022-09-11T16:04:15.616Z,26.42
2022-09-11T16:06:45.540Z,26.40
2022-09-11T16:09:16.087Z,26.29
2022-09-11T16:11:43.924Z,26.39
2022-09-11T16:14:23.274Z,26.39
2022-09-11T16:16:50.973Z,26.38
2022-09-11T16:19:20.452Z,26.34
2022-09-11T16:21:49.220Z,26.36
2022-09-11T16:24:16.279Z,26.35
2022-09-11T16:26:44.439Z,26.33
2022-09-11T16:29:14.857Z,26.33
2022-09-11T16:31:42.433Z,26.31
2022-09-11T16:34:09.703Z,26.30
2022-09-11T16:36:38.877Z,26.30
2022-09-11T16:39:06.947Z,26.25
2022-09-11T16:41:33.581Z,26.30
2022-09-11T16:44:00.301Z,26.30
2022-09-11T16:46:27.475Z,26.29
2022-09-11T16:48:59.851Z,26.29
2022-09-11T16:51:28.397Z,26.29
2022-09-11T16:53:55.385Z,26.23
2022-09-11T16:56:24.612Z,26.27
2022-09-11T16:58:51.444Z,26.28
2022-09-11T17:01:32.491Z,26.26
2022-09-11T17:03:59.144Z,26.25
2022-09-11T17:06:29.869Z,26.26
2022-09-11T17:08:59.688Z,26.25
2022-09-11T17:11:26.709Z,26.25
2022-09-11T17:13:53.709Z,26.24
2022-09-11T17:16:24.071Z,26.24
2022-09-11T17:18:53.925Z,26.23
2022-09-11T17:21:24.992Z,26.24
2022-09-11T17:23:54.317Z,26.23
2022-09-11T17:26:22.249Z,26.22
2022-09-11T17:28:50.292Z,26.23
2022-09-11T17:31:19.423Z,26.22
2022-09-11T17:33:50.330Z,26.22
2022-09-11T17:38:38.128Z,26.19
2022-09-11T17:41:07.318Z,26.19
2022-09-11T17:43:36.104Z,26.19
2022-09-11T17:46:08.789Z,26.18
2022-09-11T17:48:36.174Z,26.17
2022-09-11T17:51:10.723Z,25.82
2022-09-11T17:53:39.891Z,26.18
2022-09-11T17:56:08.461Z,26.18
2022-09-11T17:58:36.632Z,26.18
2022-09-11T18:01:03.849Z,26.17
2022-09-11T18:03:31.849Z,26.17
2022-09-11T18:05:59.526Z,26.05
2022-09-11T18:08:27.034Z,26.17
2022-09-11T18:10:59.256Z,26.16
2022-09-11T18:13:31.873Z,26.16
2022-09-11T18:15:58.482Z,26.15
2022-09-11T18:18:25.158Z,26.14
2022-09-11T18:20:55.135Z,26.10
2022-09-11T18:23:26.144Z,26.08
2022-09-11T18:25:55.811Z,26.13
2022-09-11T18:28:22.407Z,26.13
2022-09-11T18:30:50.064Z,26.14
2022-09-11T18:33:16.818Z,26.13
2022-09-11T18:35:44.271Z,26.11
2022-09-11T18:38:10.910Z,26.12
2022-09-11T18:40:37.522Z,26.12
2022-09-11T18:43:06.288Z,26.12
2022-09-11T18:45:35.573Z,26.10
2022-09-11T18:48:03.541Z,26.11
2022-09-11T18:50:31.282Z,26.12
2022-09-11T18:52:57.794Z,26.11
2022-09-11T18:55:28.799Z,26.10
2022-09-11T18:57:56.123Z,26.10
2022-09-11T19:00:22.708Z,26.10
2022-09-11T19:02:50.184Z,26.09
2022-09-11T19:05:17.322Z,26.08
2022-09-11T19:10:08.150Z,26.08
2022-09-11T19:12:34.772Z,26.07
2022-09-11T19:15:01.337Z,26.06
2022-09-11T19:17:27.941Z,26.07
2022-09-11T19:19:54.529Z,26.06
2022-09-11T19:22:22.825Z,25.95
2022-09-11T19:24:49.708Z,26.04
2022-09-11T19:27:17.411Z,26.06
2022-09-11T19:29:45.026Z,26.06
2022-09-11T19:32:13.046Z,26.06
2022-09-11T19:34:46.426Z,26.06
2022-09-11T19:37:14.438Z,26.06
2022-09-11T19:39:41.149Z,26.05
2022-09-11T19:42:09.260Z,26.05
2022-09-11T19:44:36.301Z,26.06
2022-09-11T19:47:03.490Z,25.93
2022-09-11T19:49:30.042Z,26.06
2022-09-11T19:51:57.133Z,26.06
2022-09-11T19:54:25.654Z,26.06
2022-09-11T19:56:52.470Z,25.98
2022-09-11T19:59:19.677Z,26.05
2022-09-11T20:01:46.677Z,26.05
2022-09-11T20:04:15.591Z,26.06
2022-09-11T20:11:56.433Z,26.06
2022-09-11T20:14:23.114Z,26.04
2022-09-11T20:16:49.666Z,26.05
2022-09-11T20:19:17.379Z,26.06
2022-09-11T20:21:44.700Z,26.04
2022-09-11T20:24:11.553Z,26.04
2022-09-11T20:26:38.149Z,26.03
2022-09-11T20:29:07.891Z,26.02
2022-09-11T20:31:46.474Z,26.01
2022-09-11T20:34:15.388Z,26.02
2022-09-11T20:36:42.260Z,26.01
2022-09-11T20:39:15.000Z,26.00
2022-09-11T20:41:41.866Z,26.00
2022-09-11T20:44:08.697Z,25.99
2022-09-11T20:46:35.621Z,25.98
2022-09-11T20:49:03.136Z,25.91
2022-09-11T20:51:29.947Z,25.97
2022-09-11T20:53:57.089Z,25.98
2022-09-11T20:56:24.154Z,25.97
2022-09-11T21:01:21.969Z,25.95
2022-09-11T21:06:10.425Z,25.96
2022-09-11T21:08:37.279Z,25.87
2022-09-11T21:11:04.623Z,25.94
2022-09-11T21:13:35.290Z,25.94
2022-09-11T21:16:05.306Z,25.93
2022-09-11T21:18:31.994Z,25.92
2022-09-11T21:20:58.637Z,25.93
2022-09-11T21:23:25.248Z,25.93
2022-09-11T21:25:52.776Z,25.92
2022-09-11T21:28:20.210Z,25.92
2022-09-11T21:30:46.772Z,25.92
2022-09-11T21:33:13.445Z,25.80
2022-09-11T21:35:40.009Z,25.89
2022-09-11T21:38:06.674Z,25.89
2022-09-11T21:40:33.656Z,25.90
2022-09-11T21:43:00.424Z,25.89
2022-09-11T21:45:27.017Z,25.78
2022-09-11T21:47:53.632Z,25.78
2022-09-11T21:50:20.660Z,25.90
2022-09-11T21:52:47.316Z,25.91
2022-09-11T21:55:13.963Z,25.90
2022-09-11T21:57:40.572Z,25.90
2022-09-11T22:00:12.565Z,25.90
2022-09-11T22:02:39.071Z,25.90
2022-09-11T22:05:06.135Z,25.90
2022-09-11T22:07:34.321Z,25.88
2022-09-11T22:10:02.018Z,25.88
2022-09-11T22:12:28.869Z,25.88
2022-09-11T22:14:55.507Z,25.88
2022-09-11T22:17:22.799Z,25.87
2022-09-11T22:19:49.419Z,25.88
2022-09-11T22:22:16.379Z,25.83
2022-09-11T22:24:42.995Z,25.87
2022-09-11T22:27:10.929Z,25.87
2022-09-11T22:29:37.570Z,25.88
2022-09-11T22:32:05.023Z,25.87
2022-09-11T22:34:36.115Z,25.86
2022-09-11T22:37:06.172Z,25.86
2022-09-11T22:39:32.844Z,25.87
2022-09-11T22:41:59.728Z,25.83
2022-09-11T22:44:27.104Z,25.87
2022-09-11T22:46:53.733Z,25.87
2022-09-11T22:49:20.563Z,25.86
2022-09-11T22:51:47.560Z,25.82
2022-09-11T22:54:14.692Z,25.86
2022-09-11T22:56:41.464Z,25.85
2022-09-11T22:59:08.810Z,25.86
2022-09-11T23:01:36.495Z,25.85
2022-09-11T23:04:03.453Z,25.86
2022-09-11T23:06:48.428Z,25.86
2022-09-11T23:09:16.945Z,25.86
2022-09-11T23:11:47.948Z,25.84
2022-09-11T23:14:15.011Z,25.85
2022-09-11T23:16:41.912Z,25.86
2022-09-11T23:19:08.633Z,25.85
2022-09-11T23:21:36.007Z,25.85
2022-09-11T23:24:06.150Z,25.85
2022-09-11T23:26:33.255Z,25.85
2022-09-11T23:29:00.080Z,25.76
2022-09-11T23:31:29.596Z,25.75
2022-09-11T23:33:59.144Z,25.85
2022-09-11T23:36:26.942Z,25.85
2022-09-11T23:38:53.849Z,25.76
2022-09-11T23:41:21.351Z,25.85
2022-09-11T23:43:48.468Z,25.78
2022-09-11T23:46:16.516Z,25.85
2022-09-11T23:48:43.705Z,25.86
2022-09-11T23:51:11.218Z,25.86
2022-09-11T23:53:39.285Z,25.85
2022-09-11T23:56:07.727Z,25.75
2022-09-11T23:58:39.216Z,25.85
